Impacts TAF Board INFO
FOR SITUATIONAL AWARENESS. NOT TO BE USED FOR FLIGHT PLANNING PURPOSES.
IDs:

KORD - Chicago/O'Hare Intl, IL, US

Issued at 0301 UTC 22 Jun 2018
Updated at 0317 UTC 22 Jun 2018
Potential Impact None Slight Moderate High
Time<<23/04Z 23/05Z 23/06Z 23/07Z 23/08Z 23/09Z 23/10Z 23/11Z 23/12Z 23/13Z 23/14Z 23/15Z 23/16Z
Type PRVL PRVL
VIS >6 >6
CIG 8 8
Cover OVC OVC
FltCat IFR IFR
WX VCSH VCSH
WDir 40 40
WSpd 12 12
WGst 18 18

Raw TAF
KORD 220301Z 2203/2306 06013G19KT 6SM -SHRA BR SCT012 OVC035
  TEMPO 2203/2207 3SM SHRA BKN012
  FM220700 05013G19KT 5SM RA BR OVC009
  TEMPO 2207/2211 2SM +RA BR OVC006
  FM221300 05013G19KT 6SM -SHRA OVC006
  FM222000 04012G18KT P6SM VCSH OVC008


METAR Board
Radar Display
Forecast Discussion

FOR SITUATIONAL AWARENESS. NOT TO BE USED FOR FLIGHT PLANNING PURPOSES.